createdAt,value
2023-04-10T00:02:27.254Z,8.27
2023-04-10T00:04:56.116Z,7.60
2023-04-10T00:07:26.482Z,8.30
2023-04-10T00:09:54.869Z,7.63
2023-04-10T00:12:25.216Z,8.20
2023-04-10T00:14:53.339Z,8.13
2023-04-10T00:17:21.353Z,8.30
2023-04-10T00:19:49.821Z,7.97
2023-04-10T00:22:18.322Z,8.07
2023-04-10T00:24:47.738Z,7.87
2023-04-10T00:27:15.813Z,8.23
2023-04-10T00:29:49.142Z,7.87
2023-04-10T00:32:17.230Z,8.00
2023-04-10T00:34:47.972Z,7.80
2023-04-10T00:37:16.653Z,7.93
2023-04-10T00:39:44.945Z,8.07
2023-04-10T00:42:14.766Z,7.67
2023-04-10T00:44:42.885Z,8.40
2023-04-10T00:47:10.906Z,8.40
2023-04-10T00:49:39.023Z,8.60
2023-04-10T00:52:09.547Z,7.90
2023-04-10T00:54:39.453Z,8.73
2023-04-10T00:57:08.265Z,8.10
2023-04-10T00:59:38.467Z,8.60
2023-04-10T01:02:06.726Z,8.00
2023-04-10T01:04:36.750Z,7.90
2023-04-10T01:07:11.249Z,8.17
2023-04-10T01:09:45.454Z,8.03
2023-04-10T01:12:26.586Z,8.77
2023-04-10T01:15:05.857Z,8.37
2023-04-10T01:17:42.148Z,8.27
2023-04-10T01:20:14.380Z,8.30
2023-04-10T01:22:52.840Z,8.87
2023-04-10T01:25:39.787Z,8.30
2023-04-10T01:28:32.054Z,8.77
2023-04-10T01:31:04.059Z,8.60
2023-04-10T01:33:37.491Z,8.50
2023-04-10T01:36:08.214Z,8.63
2023-04-10T01:38:39.014Z,8.57
2023-04-10T01:41:09.568Z,8.83
2023-04-10T01:43:39.255Z,8.50
2023-04-10T01:46:09.425Z,8.20
2023-04-10T01:48:37.729Z,8.50
2023-04-10T01:51:09.154Z,8.47
2023-04-10T01:53:37.865Z,8.57
2023-04-10T01:56:06.605Z,9.63
2023-04-10T01:58:35.297Z,8.83
2023-04-10T02:01:03.903Z,9.23
2023-04-10T02:03:34.593Z,8.60
2023-04-10T02:06:19.769Z,9.73
2023-04-10T02:08:56.243Z,9.27
2023-04-10T02:11:35.346Z,9.33
2023-04-10T02:14:06.831Z,9.73
2023-04-10T02:16:37.254Z,9.30
2023-04-10T02:19:08.201Z,8.67
2023-04-10T02:21:37.674Z,9.50
2023-04-10T02:24:06.694Z,10.13
2023-04-10T02:26:47.946Z,9.37
2023-04-10T02:29:35.976Z,9.63
2023-04-10T02:32:07.356Z,9.97
2023-04-10T02:34:37.116Z,8.87
2023-04-10T02:37:05.217Z,10.00
2023-04-10T02:39:33.291Z,9.30
2023-04-10T02:42:01.564Z,10.33
2023-04-10T02:44:29.965Z,9.37
2023-04-10T02:46:58.090Z,9.23
2023-04-10T02:49:26.300Z,9.53
2023-04-10T02:51:55.859Z,10.00
2023-04-10T02:54:24.306Z,9.30
2023-04-10T02:56:53.670Z,9.33
2023-04-10T02:59:23.004Z,9.53
2023-04-10T03:01:52.400Z,10.27
2023-04-10T03:04:23.353Z,10.13
2023-04-10T03:06:51.527Z,9.70
2023-04-10T03:09:22.232Z,9.83
2023-04-10T03:11:50.302Z,9.03
2023-04-10T03:14:18.461Z,9.53
2023-04-10T03:16:47.722Z,9.80
2023-04-10T03:19:16.356Z,9.50
2023-04-10T03:21:46.882Z,9.23
2023-04-10T03:24:15.240Z,9.80
2023-04-10T03:26:46.007Z,8.70
2023-04-10T03:29:18.868Z,8.63
2023-04-10T03:31:47.186Z,9.03
2023-04-10T03:34:15.383Z,8.37
2023-04-10T03:36:43.628Z,8.40
2023-04-10T03:39:12.790Z,8.70
2023-04-10T03:41:40.808Z,8.37
2023-04-10T03:44:10.499Z,8.63
2023-04-10T03:46:38.635Z,8.60
2023-04-10T03:49:06.935Z,7.63
2023-04-10T03:51:35.301Z,7.93
2023-04-10T03:54:03.645Z,8.00
2023-04-10T03:56:31.659Z,7.97
2023-04-10T03:58:59.648Z,6.97
2023-04-10T04:01:29.050Z,7.30
2023-04-10T04:03:58.332Z,7.30
2023-04-10T04:06:27.270Z,7.10
2023-04-10T04:08:55.309Z,7.27
2023-04-10T04:11:24.188Z,7.40
2023-04-10T04:13:52.648Z,6.93
2023-04-10T04:16:22.652Z,7.37
2023-04-10T04:18:52.247Z,7.63
2023-04-10T04:21:20.307Z,6.93
2023-04-10T04:23:48.772Z,6.80
2023-04-10T04:26:17.145Z,7.07
2023-04-10T04:28:45.425Z,6.87
2023-04-10T04:31:15.090Z,7.33
2023-04-10T04:33:44.007Z,7.00
2023-04-10T04:36:13.566Z,6.47
2023-04-10T04:38:43.348Z,6.40
2023-04-10T04:41:11.338Z,6.80
2023-04-10T04:43:39.402Z,6.60
2023-04-10T04:46:08.790Z,7.13
2023-04-10T04:48:37.323Z,6.90
2023-04-10T04:51:07.333Z,6.87
2023-04-10T04:53:37.358Z,6.13
2023-04-10T04:56:05.779Z,6.77
2023-04-10T04:58:34.952Z,6.40
2023-04-10T05:01:02.989Z,6.93
2023-04-10T05:03:33.196Z,7.10
2023-04-10T05:06:03.864Z,6.33
2023-04-10T05:08:32.175Z,6.90
2023-04-10T05:11:01.655Z,6.40
2023-04-10T05:13:30.813Z,6.20
2023-04-10T05:15:59.143Z,7.23
2023-04-10T05:18:27.369Z,7.07
2023-04-10T05:20:55.502Z,6.00
2023-04-10T05:23:23.543Z,6.67
2023-04-10T05:25:52.710Z,6.30
2023-04-10T05:28:22.763Z,5.90
2023-04-10T05:30:52.098Z,5.97
2023-04-10T05:33:20.767Z,6.30
2023-04-10T05:35:49.053Z,5.70
2023-04-10T05:38:17.259Z,6.33
2023-04-10T05:40:46.865Z,6.23
2023-04-10T05:43:14.915Z,5.67
2023-04-10T05:45:49.113Z,5.80
2023-04-10T05:48:17.180Z,5.87
2023-04-10T05:50:45.347Z,6.43
2023-04-10T05:53:15.826Z,5.83
2023-04-10T05:55:43.858Z,6.30
2023-04-10T05:58:15.824Z,5.67
2023-04-10T06:00:43.981Z,5.87
2023-04-10T06:03:14.518Z,6.10
2023-04-10T06:05:44.091Z,6.13
2023-04-10T06:08:12.573Z,6.23
2023-04-10T06:10:40.764Z,5.90
2023-04-10T06:13:10.975Z,6.10
2023-04-10T06:15:39.393Z,5.17
2023-04-10T06:18:07.607Z,5.27
2023-04-10T06:20:36.914Z,5.87
2023-04-10T06:23:04.941Z,5.60
2023-04-10T06:25:33.074Z,6.07
2023-04-10T06:28:01.137Z,5.70
2023-04-10T06:30:30.647Z,5.87
2023-04-10T06:32:58.773Z,5.50
2023-04-10T06:35:27.403Z,5.70
2023-04-10T06:37:56.835Z,5.70
2023-04-10T06:40:24.952Z,5.67
2023-04-10T06:42:52.911Z,5.30
2023-04-10T06:45:21.031Z,5.63
2023-04-10T06:47:49.032Z,5.93
2023-04-10T06:50:17.216Z,5.63
2023-04-10T06:52:45.909Z,6.20
2023-04-10T06:55:15.637Z,5.40
2023-04-10T06:57:43.701Z,5.37
2023-04-10T07:00:12.413Z,5.93
2023-04-10T07:02:40.611Z,5.50
2023-04-10T07:05:09.572Z,5.50
2023-04-10T07:07:37.558Z,6.03
2023-04-10T07:10:06.369Z,5.43
2023-04-10T07:12:35.987Z,5.77
2023-04-10T07:15:03.966Z,5.63
2023-04-10T07:17:32.010Z,5.50
2023-04-10T07:20:00.299Z,5.23
2023-04-10T07:22:28.282Z,6.30
2023-04-10T07:24:56.372Z,6.57
2023-04-10T07:27:24.756Z,5.80
2023-04-10T07:29:56.926Z,5.77
2023-04-10T07:32:25.480Z,5.87
2023-04-10T07:34:53.542Z,6.03
2023-04-10T07:37:22.305Z,6.43
2023-04-10T07:39:50.343Z,6.43
2023-04-10T07:42:18.371Z,5.87
2023-04-10T07:44:46.346Z,5.87
2023-04-10T07:47:15.728Z,5.80
2023-04-10T07:49:44.016Z,6.60
2023-04-10T07:52:12.111Z,6.17
2023-04-10T07:54:40.051Z,6.47
2023-04-10T07:57:08.046Z,6.03
2023-04-10T07:59:36.161Z,6.03
2023-04-10T08:02:04.493Z,15.63
2023-04-10T08:04:34.526Z,6.47
2023-04-10T08:07:02.846Z,6.77
2023-04-10T08:09:30.833Z,6.20
2023-04-10T08:11:58.899Z,6.47
2023-04-10T08:14:26.862Z,6.53
2023-04-10T08:16:54.899Z,6.07
2023-04-10T08:19:22.908Z,6.63
2023-04-10T08:21:52.212Z,6.07
2023-04-10T08:24:22.979Z,5.97
2023-04-10T08:26:51.008Z,6.27
2023-04-10T08:29:19.050Z,6.30
2023-04-10T08:31:47.136Z,5.87
2023-04-10T08:34:15.452Z,6.23
2023-04-10T08:36:43.518Z,6.33
2023-04-10T08:39:12.982Z,6.70
2023-04-10T08:41:42.339Z,6.50
2023-04-10T08:44:10.602Z,6.30
2023-04-10T08:46:43.665Z,5.77
2023-04-10T08:49:16.563Z,6.53
2023-04-10T08:51:51.064Z,6.63
2023-04-10T08:54:27.028Z,6.37
2023-04-10T08:56:56.938Z,6.17
2023-04-10T08:59:25.107Z,7.23
2023-04-10T09:01:53.578Z,6.60
2023-04-10T09:04:22.365Z,6.03
2023-04-10T09:06:50.437Z,6.30
2023-04-10T09:09:19.858Z,6.73
2023-04-10T09:12:02.559Z,6.57
2023-04-10T09:14:31.999Z,6.50
2023-04-10T09:17:21.527Z,6.43
2023-04-10T09:19:50.549Z,5.37
2023-04-10T09:22:18.600Z,6.20
2023-04-10T09:24:48.873Z,6.03
2023-04-10T09:27:32.815Z,6.50
2023-04-10T09:30:01.203Z,6.47
2023-04-10T09:32:41.564Z,5.93
2023-04-10T09:35:10.879Z,6.13
2023-04-10T09:37:40.659Z,6.07
2023-04-10T09:40:21.597Z,6.03
2023-04-10T09:42:49.750Z,5.93
2023-04-10T09:45:20.001Z,5.63
2023-04-10T09:48:03.217Z,6.07
2023-04-10T09:50:39.333Z,6.50
2023-04-10T09:53:08.768Z,6.60
2023-04-10T09:55:38.570Z,6.03
2023-04-10T09:58:07.495Z,6.13
2023-04-10T10:00:42.422Z,6.13
2023-04-10T10:03:12.710Z,6.00
2023-04-10T10:05:42.480Z,5.90
2023-04-10T10:08:12.704Z,5.83
2023-04-10T10:10:48.808Z,5.60
2023-04-10T10:13:19.034Z,5.70
2023-04-10T10:15:53.087Z,6.23
2023-04-10T10:18:27.047Z,5.73
2023-04-10T10:20:55.318Z,5.87
2023-04-10T10:23:23.454Z,5.73
2023-04-10T10:25:53.913Z,5.20
2023-04-10T10:28:22.491Z,6.10
2023-04-10T10:30:51.391Z,5.18
2023-04-10T10:33:20.202Z,5.30
2023-04-10T10:35:50.034Z,5.13
2023-04-10T10:38:19.439Z,5.30
2023-04-10T10:40:55.954Z,5.57
2023-04-10T10:43:28.705Z,5.40
2023-04-10T10:46:03.544Z,5.30
2023-04-10T10:48:31.939Z,5.72
2023-04-10T10:51:02.250Z,5.70
2023-04-10T10:53:38.761Z,5.40
2023-04-10T10:56:35.927Z,4.90
2023-04-10T10:59:04.228Z,5.57
2023-04-10T11:01:32.427Z,5.05
2023-04-10T11:04:01.266Z,5.00
2023-04-10T11:06:51.090Z,5.20
2023-04-10T11:09:51.695Z,5.15
2023-04-10T11:12:23.464Z,5.53
2023-04-10T11:15:01.563Z,5.03
2023-04-10T11:17:49.686Z,5.20
2023-04-10T11:20:18.028Z,5.50
2023-04-10T11:23:11.984Z,5.43
2023-04-10T11:25:53.245Z,5.47
2023-04-10T11:28:39.018Z,4.95
2023-04-10T11:31:19.398Z,5.13
2023-04-10T11:33:48.183Z,5.32
2023-04-10T11:36:18.074Z,5.15
2023-04-10T11:38:56.773Z,5.20
2023-04-10T11:41:30.406Z,5.25
2023-04-10T11:44:00.177Z,5.10
2023-04-10T11:46:28.543Z,5.00
2023-04-10T11:49:01.280Z,5.03
2023-04-10T11:51:29.711Z,5.38
2023-04-10T11:54:09.092Z,4.97
2023-04-10T11:56:37.770Z,5.22
2023-04-10T11:59:11.196Z,5.00
2023-04-10T12:01:42.971Z,5.38
2023-04-10T12:04:19.061Z,4.88
2023-04-10T12:06:48.001Z,4.70
2023-04-10T12:09:17.294Z,5.03
2023-04-10T12:11:51.922Z,4.93
2023-04-10T12:14:22.128Z,5.13
2023-04-10T12:16:50.885Z,5.27
2023-04-10T12:19:19.388Z,5.53
2023-04-10T12:21:47.531Z,5.35
2023-04-10T12:24:42.140Z,5.40
2023-04-10T12:27:10.512Z,5.68
2023-04-10T12:29:39.845Z,5.80
2023-04-10T12:32:11.361Z,5.77
2023-04-10T12:34:39.752Z,5.63
2023-04-10T12:37:08.002Z,6.20
2023-04-10T12:39:36.267Z,5.90
2023-04-10T12:42:15.155Z,6.47
2023-04-10T12:44:55.093Z,6.17
2023-04-10T12:47:23.409Z,6.37
2023-04-10T12:50:08.878Z,6.27
2023-04-10T12:52:37.492Z,6.60
2023-04-10T12:55:16.217Z,6.70
2023-04-10T12:57:46.073Z,6.70
2023-04-10T13:00:17.994Z,6.53
2023-04-10T13:02:47.152Z,6.30
2023-04-10T13:05:15.668Z,6.60
2023-04-10T13:07:43.722Z,6.57
2023-04-10T13:10:12.070Z,6.30
2023-04-10T13:12:41.854Z,6.57
2023-04-10T13:15:10.797Z,6.00
2023-04-10T13:17:41.676Z,6.40
2023-04-10T13:20:11.669Z,6.83
2023-04-10T13:22:39.778Z,6.77
2023-04-10T13:25:08.346Z,6.60
2023-04-10T13:27:36.379Z,6.90
2023-04-10T13:30:04.856Z,7.20
2023-04-10T13:32:32.876Z,6.47
2023-04-10T13:35:02.284Z,7.00
2023-04-10T13:37:30.400Z,7.13
2023-04-10T13:39:58.321Z,7.00
2023-04-10T13:42:26.362Z,7.03
2023-04-10T13:44:54.436Z,7.57
2023-04-10T13:47:22.616Z,6.60
2023-04-10T13:49:50.584Z,7.00
2023-04-10T13:52:19.969Z,6.40
2023-04-10T13:54:47.953Z,6.43
2023-04-10T13:57:16.238Z,7.00
2023-04-10T13:59:44.285Z,5.93
2023-04-10T14:02:12.392Z,5.73
2023-04-10T14:04:41.176Z,6.00
2023-04-10T14:07:10.015Z,6.43
2023-04-10T14:09:39.459Z,5.63
2023-04-10T14:12:07.628Z,6.33
2023-04-10T14:14:35.699Z,5.37
2023-04-10T14:17:03.712Z,6.00
2023-04-10T14:19:32.184Z,6.10
2023-04-10T14:22:00.155Z,5.97
2023-04-10T14:24:28.114Z,5.67
2023-04-10T14:27:00.698Z,5.63
2023-04-10T14:29:37.286Z,5.73
2023-04-10T14:32:08.926Z,5.47
2023-04-10T14:34:36.949Z,5.30
2023-04-10T14:37:05.099Z,5.67
2023-04-10T14:39:33.905Z,5.23
2023-04-10T14:42:03.463Z,6.23
2023-04-10T14:44:31.534Z,5.80
2023-04-10T14:46:59.697Z,5.97
2023-04-10T14:49:27.643Z,6.10
2023-04-10T14:51:55.627Z,6.70
2023-04-10T14:54:24.189Z,6.60
2023-04-10T14:56:52.326Z,7.30
2023-04-10T14:59:21.626Z,7.93
2023-04-10T15:01:50.007Z,7.77
2023-04-10T15:04:18.226Z,8.23
2023-04-10T15:06:46.335Z,8.80
2023-04-10T15:09:14.579Z,8.97
2023-04-10T15:11:42.571Z,10.03
2023-04-10T15:14:12.023Z,8.73
2023-04-10T15:16:41.929Z,8.60
2023-04-10T15:19:10.199Z,10.43
2023-04-10T15:21:38.182Z,9.30
2023-04-10T15:24:06.312Z,8.63
2023-04-10T15:26:35.057Z,8.43
2023-04-10T15:29:03.380Z,7.83
2023-04-10T15:31:31.383Z,8.87
2023-04-10T15:34:00.702Z,8.67
2023-04-10T15:36:29.109Z,7.90
2023-04-10T15:38:58.986Z,7.37
2023-04-10T15:41:28.102Z,8.00
2023-04-10T15:43:56.371Z,7.83
2023-04-10T15:46:24.668Z,7.63
2023-04-10T15:48:52.869Z,7.20
2023-04-10T15:51:22.523Z,6.70
2023-04-10T15:53:50.549Z,7.10
2023-04-10T15:56:18.571Z,6.43
2023-04-10T15:58:46.522Z,6.47
2023-04-10T16:01:14.563Z,6.37
2023-04-10T16:03:42.809Z,6.13
2023-04-10T16:06:11.099Z,5.53
2023-04-10T16:08:40.720Z,5.40
2023-04-10T16:11:08.728Z,5.27
2023-04-10T16:13:39.441Z,5.07
2023-04-10T16:16:14.512Z,5.00
2023-04-10T16:18:44.422Z,5.37
2023-04-10T16:21:13.263Z,4.93
2023-04-10T16:23:42.552Z,4.90
2023-04-10T16:26:10.607Z,4.93
2023-04-10T16:28:38.661Z,4.90
2023-04-10T16:31:07.399Z,5.70
2023-04-10T16:33:35.481Z,4.90
2023-04-10T16:36:04.813Z,5.50
2023-04-10T16:38:34.546Z,5.63
2023-04-10T16:41:04.922Z,5.50
2023-04-10T16:43:33.151Z,5.80
2023-04-10T16:46:01.086Z,6.40
2023-04-10T16:48:29.050Z,5.90
2023-04-10T16:51:04.888Z,5.70
2023-04-10T16:53:33.570Z,6.00
2023-04-10T16:56:04.442Z,5.83
2023-04-10T16:58:36.677Z,6.13
2023-04-10T17:01:14.634Z,5.90
2023-04-10T17:03:43.161Z,6.07
2023-04-10T17:06:11.251Z,5.57
2023-04-10T17:08:39.343Z,5.50
2023-04-10T17:11:07.870Z,5.50
2023-04-10T17:13:37.179Z,5.17
2023-04-10T17:16:05.530Z,6.23
2023-04-10T17:18:34.073Z,5.60
2023-04-10T17:21:02.100Z,4.20
2023-04-10T17:23:30.921Z,4.27
2023-04-10T17:25:58.967Z,4.77
2023-04-10T17:28:26.902Z,4.53
2023-04-10T17:30:56.213Z,4.20
2023-04-10T17:33:24.213Z,4.17
2023-04-10T17:35:52.531Z,3.47
2023-04-10T17:38:20.639Z,3.77
2023-04-10T17:40:48.648Z,3.77
2023-04-10T17:43:16.697Z,4.13
2023-04-10T17:45:44.773Z,3.80
2023-04-10T17:48:14.255Z,3.70
2023-04-10T17:50:42.436Z,3.57
2023-04-10T17:53:10.381Z,4.27
2023-04-10T17:55:39.742Z,3.70
2023-04-10T17:58:11.176Z,3.90
2023-04-10T18:00:43.622Z,3.33
2023-04-10T18:03:13.652Z,2.97
2023-04-10T18:05:41.824Z,3.23
2023-04-10T18:08:10.235Z,3.30
2023-04-10T18:10:38.737Z,2.40
2023-04-10T18:13:08.201Z,2.30
2023-04-10T18:15:36.644Z,2.20
2023-04-10T18:18:05.128Z,2.23
2023-04-10T18:20:36.222Z,2.43
2023-04-10T18:23:06.464Z,2.20
2023-04-10T18:25:40.042Z,2.27
2023-04-10T18:28:14.909Z,2.63
2023-04-10T18:30:45.672Z,2.30
2023-04-10T18:33:20.752Z,2.63
2023-04-10T18:35:50.746Z,2.00
2023-04-10T18:38:19.206Z,1.80
2023-04-10T18:40:47.675Z,3.00
2023-04-10T18:43:16.212Z,2.57
2023-04-10T18:46:06.400Z,2.70
2023-04-10T18:48:35.419Z,2.80
2023-04-10T18:51:05.143Z,2.50
2023-04-10T18:53:34.495Z,2.60
2023-04-10T18:56:02.724Z,3.23
2023-04-10T18:58:51.259Z,3.13
2023-04-10T19:01:20.964Z,2.77
2023-04-10T19:03:52.329Z,3.03
2023-04-10T19:06:24.283Z,2.80
2023-04-10T19:08:55.843Z,2.17
2023-04-10T19:11:24.368Z,3.87
2023-04-10T19:13:52.476Z,2.87
2023-04-10T19:16:40.640Z,2.97
2023-04-10T19:19:08.889Z,2.63
2023-04-10T19:21:38.748Z,2.77
2023-04-10T19:24:07.488Z,2.70
2023-04-10T19:26:37.983Z,3.13
2023-04-10T19:29:06.403Z,2.77
2023-04-10T19:31:37.904Z,2.57
2023-04-10T19:34:09.344Z,2.83
2023-04-10T19:36:39.504Z,2.53
2023-04-10T19:39:08.690Z,2.90
2023-04-10T19:41:41.808Z,3.10
2023-04-10T19:44:10.048Z,3.03
2023-04-10T19:46:38.236Z,2.67
2023-04-10T19:49:06.986Z,2.87
2023-04-10T19:51:35.460Z,3.17
2023-04-10T19:54:05.319Z,2.53
2023-04-10T19:56:34.993Z,2.90
2023-04-10T19:59:03.104Z,2.73
2023-04-10T20:01:31.760Z,3.10
2023-04-10T20:04:01.345Z,2.50
2023-04-10T20:06:29.587Z,2.80
2023-04-10T20:08:57.943Z,2.93
2023-04-10T20:11:30.648Z,2.80
2023-04-10T20:13:58.849Z,2.93
2023-04-10T20:16:27.366Z,3.17
2023-04-10T20:18:56.250Z,3.37
2023-04-10T20:21:27.187Z,3.40
2023-04-10T20:23:59.784Z,3.63
2023-04-10T20:26:29.434Z,2.90
2023-04-10T20:28:57.997Z,3.73
2023-04-10T20:31:26.757Z,3.83
2023-04-10T20:33:56.071Z,3.70
2023-04-10T20:36:25.021Z,4.37
2023-04-10T20:38:53.516Z,3.53
2023-04-10T20:41:22.471Z,2.97
2023-04-10T20:43:52.941Z,4.30
2023-04-10T20:46:21.052Z,3.77
2023-04-10T20:48:52.110Z,3.70
2023-04-10T20:51:21.089Z,3.80
2023-04-10T20:53:49.140Z,3.20
2023-04-10T20:56:18.013Z,2.97
2023-04-10T20:58:47.299Z,3.40
2023-04-10T21:01:16.873Z,3.40
2023-04-10T21:03:49.279Z,3.77
2023-04-10T21:06:18.242Z,3.50
2023-04-10T21:08:46.522Z,3.90
2023-04-10T21:11:14.840Z,3.97
2023-04-10T21:13:42.973Z,3.93
2023-04-10T21:16:11.544Z,4.00
2023-04-10T21:18:41.763Z,4.60
2023-04-10T21:21:11.146Z,4.70
2023-04-10T21:24:19.742Z,3.93
2023-04-10T21:26:47.877Z,3.43
2023-04-10T21:29:18.945Z,2.30
2023-04-10T21:32:10.627Z,3.53
2023-04-10T21:34:42.994Z,2.90
2023-04-10T21:37:12.606Z,2.77
2023-04-10T21:39:42.199Z,2.40
2023-04-10T21:42:12.153Z,2.67
2023-04-10T21:44:40.246Z,2.00
2023-04-10T21:47:09.552Z,1.87
2023-04-10T21:49:39.305Z,2.13
2023-04-10T21:52:12.870Z,1.77
2023-04-10T21:54:44.104Z,1.87
2023-04-10T21:57:12.151Z,2.53
2023-04-10T21:59:40.725Z,2.37
2023-04-10T22:02:10.757Z,2.40
2023-04-10T22:04:47.995Z,2.50
2023-04-10T22:07:23.685Z,2.77
2023-04-10T22:09:54.128Z,2.63
2023-04-10T22:12:22.439Z,2.80
2023-04-10T22:14:53.714Z,3.20
2023-04-10T22:17:24.142Z,3.43
2023-04-10T22:19:52.896Z,3.70
2023-04-10T22:22:21.518Z,3.27
2023-04-10T22:24:56.254Z,3.20
2023-04-10T22:27:25.471Z,5.10
2023-04-10T22:30:03.234Z,3.90
2023-04-10T22:32:32.652Z,2.97
2023-04-10T22:35:02.220Z,3.20
2023-04-10T22:37:31.792Z,3.17
2023-04-10T22:40:02.504Z,2.57
2023-04-10T22:42:31.970Z,1.93
2023-04-10T22:45:00.959Z,2.07
2023-04-10T22:47:29.219Z,2.00
2023-04-10T22:49:58.059Z,2.07
2023-04-10T22:52:28.400Z,1.63
2023-04-10T22:55:00.916Z,2.63
2023-04-10T22:57:29.263Z,2.63
2023-04-10T22:59:59.484Z,2.97
2023-04-10T23:02:29.137Z,3.40
2023-04-10T23:04:57.837Z,4.13
2023-04-10T23:07:27.997Z,3.73
2023-04-10T23:09:56.665Z,3.57
2023-04-10T23:12:27.047Z,4.23
2023-04-10T23:14:58.313Z,4.33
2023-04-10T23:17:27.885Z,4.57
2023-04-10T23:19:57.378Z,4.03
2023-04-10T23:22:25.717Z,4.47
2023-04-10T23:24:55.174Z,4.07
2023-04-10T23:27:32.324Z,3.40
2023-04-10T23:30:01.958Z,4.03
2023-04-10T23:32:30.340Z,5.20
2023-04-10T23:34:58.388Z,4.33
2023-04-10T23:37:26.448Z,4.40
2023-04-10T23:39:54.762Z,3.80
2023-04-10T23:42:22.879Z,4.17
2023-04-10T23:44:54.741Z,3.50
2023-04-10T23:47:23.976Z,5.07
2023-04-10T23:49:52.096Z,4.60
2023-04-10T23:52:22.469Z,3.60
2023-04-10T23:54:50.721Z,3.53
2023-04-10T23:57:18.770Z,3.10
2023-04-10T23:59:47.526Z,3.53
